Marlboro, Canada
Current Conditions -  °F | °C
As of 6:00 PM on Saturday 25 Oct 2014 (Local Time) from CYET Reporting Station
Few Clouds Few Clouds  
Wind Chill: 32°   Ceiling: Unl
Heat Index: 39°   Visibility: 9mi
Dew Point: 27°   Wind: 10mph
Humidity: 61%   Direction: 60°ENE
Pressure: 29.53"   Gusts: NA
Location:  53.55°N, 116.77°W
Report Text: CYET 260000Z AUTO 06009KT 9SM FEW150 04/M03 A2953 RMK SLP035
Loading
Personal Weather Stations






























Interactive Weather Map
Tropical Storm Tracking
New forecast layout! Learn more

10-Day Weather Forecast

Advertisements
Track Severe Weather on mobile